JFK weather

John F Kennedy International Airport
New York, New York, United States

Public forecast

Using degrees Fahrenheit for public forecast. Weather courtesy of forecast.io.

Current aviation weather report (METAR) for John F Kennedy International Airport

Retrieved 2019/10/17 03:51 UTC (40 minutes ago):

KJFK 170351Z 30028G42KT 8SM -RA SCT013 OVC037 12/11 A2921 RMK AO2 PK WND 28045/0314 RAE20B44 SLP891 P0000 T01220106

Aviation forecast (TAF) for John F Kennedy International Airport

Retrieved 2019-10-17 00:51 UTC (4 hours ago):

TAF KJFK 162344Z 1700/1806 12021G31KT 5SM -RA BR SCT008 BKN025 WS020/14050KT TEMPO 1701/1702 2SM RA BR SCT008 OVC015 FM170200 33023G33KT 4SM -RA BR SCT008 OVC015 TEMPO 1702/1703 2SM RA BR BKN008 FM170400 29027G37KT P6SM BKN015 FM170600 28026G36KT P6SM BKN035 FM170900 28026G36KT P6SM BKN045 FM171500 27026G38KT P6SM BKN050 FM172300 28022G32KT P6SM BKN050 FM180400 29019G29KT P6SM BKN050